sensor_id;sensor_type;location;lat;lon;timestamp;temperature;humidity
65470;DHT22;52067;50.710;14.492;2023-04-24T00:01:29;7.34;90.28
65470;DHT22;52067;50.710;14.492;2023-04-24T00:03:55;7.60;90.81
65470;DHT22;52067;50.710;14.492;2023-04-24T00:06:25;7.66;90.65
65470;DHT22;52067;50.710;14.492;2023-04-24T00:08:59;7.54;90.06
65470;DHT22;52067;50.710;14.492;2023-04-24T00:11:25;7.54;89.55
65470;DHT22;52067;50.710;14.492;2023-04-24T00:13:51;7.48;88.79
65470;DHT22;52067;50.710;14.492;2023-04-24T00:16:16;7.24;88.05
65470;DHT22;52067;50.710;14.492;2023-04-24T00:18:41;7.24;88.51
65470;DHT22;52067;50.710;14.492;2023-04-24T00:21:07;7.36;88.45
65470;DHT22;52067;50.710;14.492;2023-04-24T00:23:32;7.31;88.39
65470;DHT22;52067;50.710;14.492;2023-04-24T00:25:58;7.22;88.36
65470;DHT22;52067;50.710;14.492;2023-04-24T00:28:23;7.20;88.62
65470;DHT22;52067;50.710;14.492;2023-04-24T00:30:48;7.27;88.61
65470;DHT22;52067;50.710;14.492;2023-04-24T00:33:14;7.31;88.74
65470;DHT22;52067;50.710;14.492;2023-04-24T00:35:39;7.34;88.60
65470;DHT22;52067;50.710;14.492;2023-04-24T00:38:05;7.06;88.70
65470;DHT22;52067;50.710;14.492;2023-04-24T00:40:31;7.16;88.79
65470;DHT22;52067;50.710;14.492;2023-04-24T00:42:56;7.22;88.55
65470;DHT22;52067;50.710;14.492;2023-04-24T00:45:22;6.95;89.18
65470;DHT22;52067;50.710;14.492;2023-04-24T00:47:48;7.02;89.10
65470;DHT22;52067;50.710;14.492;2023-04-24T00:50:15;6.85;88.83
65470;DHT22;52067;50.710;14.492;2023-04-24T00:52:40;6.99;88.88
65470;DHT22;52067;50.710;14.492;2023-04-24T00:55:06;6.79;89.08
65470;DHT22;52067;50.710;14.492;2023-04-24T00:57:32;6.91;89.03
65470;DHT22;52067;50.710;14.492;2023-04-24T00:59:58;6.98;90.07
65470;DHT22;52067;50.710;14.492;2023-04-24T01:02:24;7.18;89.50
65470;DHT22;52067;50.710;14.492;2023-04-24T01:04:50;6.98;88.59
65470;DHT22;52067;50.710;14.492;2023-04-24T01:07:19;7.08;88.50
65470;DHT22;52067;50.710;14.492;2023-04-24T01:09:47;7.09;88.29
65470;DHT22;52067;50.710;14.492;2023-04-24T01:12:15;6.98;89.20
65470;DHT22;52067;50.710;14.492;2023-04-24T01:14:40;7.12;89.08
65470;DHT22;52067;50.710;14.492;2023-04-24T01:17:06;7.26;88.80
65470;DHT22;52067;50.710;14.492;2023-04-24T01:19:32;7.40;88.68
65470;DHT22;52067;50.710;14.492;2023-04-24T01:21:59;7.16;90.30
65470;DHT22;52067;50.710;14.492;2023-04-24T01:24:27;7.40;89.88
65470;DHT22;52067;50.710;14.492;2023-04-24T01:26:52;7.27;89.75
65470;DHT22;52067;50.710;14.492;2023-04-24T01:29:18;7.34;89.73
65470;DHT22;52067;50.710;14.492;2023-04-24T01:31:43;7.24;89.63
65470;DHT22;52067;50.710;14.492;2023-04-24T01:34:10;7.24;89.59
65470;DHT22;52067;50.710;14.492;2023-04-24T01:36:35;7.15;90.50
65470;DHT22;52067;50.710;14.492;2023-04-24T01:39:01;7.37;90.30
65470;DHT22;52067;50.710;14.492;2023-04-24T01:41:28;7.43;90.09
65470;DHT22;52067;50.710;14.492;2023-04-24T01:43:53;7.23;90.06
65470;DHT22;52067;50.710;14.492;2023-04-24T01:46:20;7.50;89.81
65470;DHT22;52067;50.710;14.492;2023-04-24T01:48:45;7.74;89.72
65470;DHT22;52067;50.710;14.492;2023-04-24T01:51:11;7.50;89.92
65470;DHT22;52067;50.710;14.492;2023-04-24T01:53:36;7.73;89.71
65470;DHT22;52067;50.710;14.492;2023-04-24T01:56:02;7.88;89.23
65470;DHT22;52067;50.710;14.492;2023-04-24T01:58:28;7.91;89.31
65470;DHT22;52067;50.710;14.492;2023-04-24T02:00:56;8.05;89.37
65470;DHT22;52067;50.710;14.492;2023-04-24T02:03:21;8.09;88.92
65470;DHT22;52067;50.710;14.492;2023-04-24T02:05:47;8.22;88.62
65470;DHT22;52067;50.710;14.492;2023-04-24T02:08:12;8.19;88.80
65470;DHT22;52067;50.710;14.492;2023-04-24T02:10:37;8.18;88.86
65470;DHT22;52067;50.710;14.492;2023-04-24T02:13:03;8.19;89.46
65470;DHT22;52067;50.710;14.492;2023-04-24T02:15:29;8.33;89.99
65470;DHT22;52067;50.710;14.492;2023-04-24T02:17:55;8.40;90.28
65470;DHT22;52067;50.710;14.492;2023-04-24T02:20:20;8.54;90.20
65470;DHT22;52067;50.710;14.492;2023-04-24T02:22:46;8.76;90.07
65470;DHT22;52067;50.710;14.492;2023-04-24T02:25:11;8.80;88.97
65470;DHT22;52067;50.710;14.492;2023-04-24T02:27:37;8.78;88.33
65470;DHT22;52067;50.710;14.492;2023-04-24T02:30:02;8.68;88.15
65470;DHT22;52067;50.710;14.492;2023-04-24T02:32:28;8.29;89.64
65470;DHT22;52067;50.710;14.492;2023-04-24T02:34:53;8.42;89.23
65470;DHT22;52067;50.710;14.492;2023-04-24T02:37:19;8.49;89.10
65470;DHT22;52067;50.710;14.492;2023-04-24T02:39:44;8.53;89.05
65470;DHT22;52067;50.710;14.492;2023-04-24T02:42:09;8.22;90.05
65470;DHT22;52067;50.710;14.492;2023-04-24T02:44:35;8.49;89.68
65470;DHT22;52067;50.710;14.492;2023-04-24T02:47:00;8.59;89.51
65470;DHT22;52067;50.710;14.492;2023-04-24T02:49:26;8.70;89.18
65470;DHT22;52067;50.710;14.492;2023-04-24T02:51:52;8.76;88.97
65470;DHT22;52067;50.710;14.492;2023-04-24T02:54:17;8.56;89.81
65470;DHT22;52067;50.710;14.492;2023-04-24T02:56:42;8.66;89.37
65470;DHT22;52067;50.710;14.492;2023-04-24T02:59:08;8.26;90.12
65470;DHT22;52067;50.710;14.492;2023-04-24T03:01:33;8.57;89.94
65470;DHT22;52067;50.710;14.492;2023-04-24T03:03:59;8.63;89.41
65470;DHT22;52067;50.710;14.492;2023-04-24T03:06:24;8.35;90.37
65470;DHT22;52067;50.710;14.492;2023-04-24T03:08:50;8.37;89.95
65470;DHT22;52067;50.710;14.492;2023-04-24T03:11:15;8.59;89.71
65470;DHT22;52067;50.710;14.492;2023-04-24T03:13:40;8.56;89.55
65470;DHT22;52067;50.710;14.492;2023-04-24T03:16:06;8.45;90.52
65470;DHT22;52067;50.710;14.492;2023-04-24T03:18:31;8.21;90.34
65470;DHT22;52067;50.710;14.492;2023-04-24T03:20:57;8.10;90.90
65470;DHT22;52067;50.710;14.492;2023-04-24T03:23:22;8.19;91.28
65470;DHT22;52067;50.710;14.492;2023-04-24T03:25:48;8.25;91.43
65470;DHT22;52067;50.710;14.492;2023-04-24T03:28:13;8.50;91.20
65470;DHT22;52067;50.710;14.492;2023-04-24T03:30:39;8.28;90.66
65470;DHT22;52067;50.710;14.492;2023-04-24T03:33:05;8.03;91.09
65470;DHT22;52067;50.710;14.492;2023-04-24T03:35:30;8.15;90.94
65470;DHT22;52067;50.710;14.492;2023-04-24T03:37:56;8.30;90.96
65470;DHT22;52067;50.710;14.492;2023-04-24T03:40:21;8.49;90.70
65470;DHT22;52067;50.710;14.492;2023-04-24T03:42:46;8.50;90.44
65470;DHT22;52067;50.710;14.492;2023-04-24T03:45:12;8.64;90.04
65470;DHT22;52067;50.710;14.492;2023-04-24T03:47:37;8.35;90.46
65470;DHT22;52067;50.710;14.492;2023-04-24T03:50:02;8.59;90.31
65470;DHT22;52067;50.710;14.492;2023-04-24T03:52:28;8.77;89.90
65470;DHT22;52067;50.710;14.492;2023-04-24T03:54:53;8.83;89.75
65470;DHT22;52067;50.710;14.492;2023-04-24T03:57:19;8.97;89.17
65470;DHT22;52067;50.710;14.492;2023-04-24T03:59:44;8.97;88.98
65470;DHT22;52067;50.710;14.492;2023-04-24T04:02:09;8.77;89.69
65470;DHT22;52067;50.710;14.492;2023-04-24T04:04:35;8.80;89.38
65470;DHT22;52067;50.710;14.492;2023-04-24T04:07:00;8.97;89.10
65470;DHT22;52067;50.710;14.492;2023-04-24T04:09:28;9.01;89.02
65470;DHT22;52067;50.710;14.492;2023-04-24T04:11:53;9.16;88.76
65470;DHT22;52067;50.710;14.492;2023-04-24T04:14:19;9.26;88.66
65470;DHT22;52067;50.710;14.492;2023-04-24T04:16:44;9.38;88.69
65470;DHT22;52067;50.710;14.492;2023-04-24T04:19:10;9.43;88.68
65470;DHT22;52067;50.710;14.492;2023-04-24T04:21:35;9.38;88.46
65470;DHT22;52067;50.710;14.492;2023-04-24T04:24:00;9.14;89.73
65470;DHT22;52067;50.710;14.492;2023-04-24T04:26:26;8.81;90.36
65470;DHT22;52067;50.710;14.492;2023-04-24T04:28:52;9.12;90.09
65470;DHT22;52067;50.710;14.492;2023-04-24T04:31:19;8.85;90.12
65470;DHT22;52067;50.710;14.492;2023-04-24T04:33:45;8.87;90.48
65470;DHT22;52067;50.710;14.492;2023-04-24T04:36:10;9.12;90.40
65470;DHT22;52067;50.710;14.492;2023-04-24T04:38:35;9.24;90.26
65470;DHT22;52067;50.710;14.492;2023-04-24T04:41:02;9.35;90.05
65470;DHT22;52067;50.710;14.492;2023-04-24T04:43:28;9.19;90.66
65470;DHT22;52067;50.710;14.492;2023-04-24T04:45:53;9.43;90.37
65470;DHT22;52067;50.710;14.492;2023-04-24T04:48:19;9.62;89.99
65470;DHT22;52067;50.710;14.492;2023-04-24T04:50:45;9.66;89.56
65470;DHT22;52067;50.710;14.492;2023-04-24T04:53:10;9.49;89.52
65470;DHT22;52067;50.710;14.492;2023-04-24T04:55:36;9.63;89.61
65470;DHT22;52067;50.710;14.492;2023-04-24T04:58:02;9.80;89.17
65470;DHT22;52067;50.710;14.492;2023-04-24T05:00:27;9.72;88.98
65470;DHT22;52067;50.710;14.492;2023-04-24T05:02:54;9.83;89.36
65470;DHT22;52067;50.710;14.492;2023-04-24T05:05:19;9.76;89.35
65470;DHT22;52067;50.710;14.492;2023-04-24T05:07:45;9.46;90.16
65470;DHT22;52067;50.710;14.492;2023-04-24T05:10:10;9.53;90.35
65470;DHT22;52067;50.710;14.492;2023-04-24T05:12:36;9.45;90.68
65470;DHT22;52067;50.710;14.492;2023-04-24T05:15:02;9.59;90.58
65470;DHT22;52067;50.710;14.492;2023-04-24T05:17:28;9.86;90.35
65470;DHT22;52067;50.710;14.492;2023-04-24T05:19:53;9.97;89.87
65470;DHT22;52067;50.710;14.492;2023-04-24T05:22:19;9.87;90.20
65470;DHT22;52067;50.710;14.492;2023-04-24T05:24:46;10.10;90.20
65470;DHT22;52067;50.710;14.492;2023-04-24T05:27:11;10.32;89.84
65470;DHT22;52067;50.710;14.492;2023-04-24T05:29:37;10.52;89.82
65470;DHT22;52067;50.710;14.492;2023-04-24T05:32:02;10.72;89.03
65470;DHT22;52067;50.710;14.492;2023-04-24T05:34:28;10.75;88.82
65470;DHT22;52067;50.710;14.492;2023-04-24T05:36:53;10.86;88.91
65470;DHT22;52067;50.710;14.492;2023-04-24T05:39:19;10.83;88.89
65470;DHT22;52067;50.710;14.492;2023-04-24T05:41:44;10.41;90.11
65470;DHT22;52067;50.710;14.492;2023-04-24T05:44:10;10.37;90.33
65470;DHT22;52067;50.710;14.492;2023-04-24T05:46:35;10.62;90.23
65470;DHT22;52067;50.710;14.492;2023-04-24T05:49:01;10.80;89.86
65470;DHT22;52067;50.710;14.492;2023-04-24T05:51:27;10.77;89.78
65470;DHT22;52067;50.710;14.492;2023-04-24T05:53:53;11.14;89.24
65470;DHT22;52067;50.710;14.492;2023-04-24T05:56:18;11.27;88.50
65470;DHT22;52067;50.710;14.492;2023-04-24T05:58:45;11.31;88.21
65470;DHT22;52067;50.710;14.492;2023-04-24T06:01:11;11.50;88.38
65470;DHT22;52067;50.710;14.492;2023-04-24T06:03:40;11.24;89.22
65470;DHT22;52067;50.710;14.492;2023-04-24T06:06:07;11.55;88.36
65470;DHT22;52067;50.710;14.492;2023-04-24T06:08:33;11.48;88.41
65470;DHT22;52067;50.710;14.492;2023-04-24T06:10:59;11.52;87.96
65470;DHT22;52067;50.710;14.492;2023-04-24T06:13:24;11.59;88.01
65470;DHT22;52067;50.710;14.492;2023-04-24T06:15:50;11.81;88.12
65470;DHT22;52067;50.710;14.492;2023-04-24T06:18:16;11.81;88.13
65470;DHT22;52067;50.710;14.492;2023-04-24T06:20:41;12.10;87.58
65470;DHT22;52067;50.710;14.492;2023-04-24T06:23:06;12.30;86.83
65470;DHT22;52067;50.710;14.492;2023-04-24T06:25:32;12.25;86.37
65470;DHT22;52067;50.710;14.492;2023-04-24T06:27:57;12.32;86.94
65470;DHT22;52067;50.710;14.492;2023-04-24T06:30:23;12.23;86.48
65470;DHT22;52067;50.710;14.492;2023-04-24T06:32:48;12.27;86.48
65470;DHT22;52067;50.710;14.492;2023-04-24T06:35:14;12.32;86.10
65470;DHT22;52067;50.710;14.492;2023-04-24T06:37:41;12.09;86.25
65470;DHT22;52067;50.710;14.492;2023-04-24T06:40:07;12.17;86.48
65470;DHT22;52067;50.710;14.492;2023-04-24T06:42:32;12.26;86.10
65470;DHT22;52067;50.710;14.492;2023-04-24T06:44:57;12.22;86.47
65470;DHT22;52067;50.710;14.492;2023-04-24T06:47:23;12.10;87.41
65470;DHT22;52067;50.710;14.492;2023-04-24T06:49:48;11.98;86.79
65470;DHT22;52067;50.710;14.492;2023-04-24T06:52:16;12.09;86.91
65470;DHT22;52067;50.710;14.492;2023-04-24T06:54:41;12.17;86.89
65470;DHT22;52067;50.710;14.492;2023-04-24T06:57:08;11.98;87.49
65470;DHT22;52067;50.710;14.492;2023-04-24T06:59:33;11.81;88.10
65470;DHT22;52067;50.710;14.492;2023-04-24T07:01:58;12.13;87.39
65470;DHT22;52067;50.710;14.492;2023-04-24T07:04:24;12.19;87.12
65470;DHT22;52067;50.710;14.492;2023-04-24T07:06:50;12.12;86.88
65470;DHT22;52067;50.710;14.492;2023-04-24T07:09:16;12.09;87.23
65470;DHT22;52067;50.710;14.492;2023-04-24T07:11:43;12.17;87.87
65470;DHT22;52067;50.710;14.492;2023-04-24T07:14:09;12.34;87.33
65470;DHT22;52067;50.710;14.492;2023-04-24T07:16:35;12.44;87.15
65470;DHT22;52067;50.710;14.492;2023-04-24T07:19:00;12.43;87.36
65470;DHT22;52067;50.710;14.492;2023-04-24T07:21:26;12.74;86.93
65470;DHT22;52067;50.710;14.492;2023-04-24T07:23:52;13.11;85.94
65470;DHT22;52067;50.710;14.492;2023-04-24T07:26:17;13.36;85.41
65470;DHT22;52067;50.710;14.492;2023-04-24T07:28:43;13.59;84.48
65470;DHT22;52067;50.710;14.492;2023-04-24T07:31:08;13.38;82.93
65470;DHT22;52067;50.710;14.492;2023-04-24T07:33:34;13.75;82.84
65470;DHT22;52067;50.710;14.492;2023-04-24T07:36:01;13.78;81.86
65470;DHT22;52067;50.710;14.492;2023-04-24T07:38:26;13.95;82.36
65470;DHT22;52067;50.710;14.492;2023-04-24T07:40:54;13.94;81.96
65470;DHT22;52067;50.710;14.492;2023-04-24T07:43:20;13.38;81.81
65470;DHT22;52067;50.710;14.492;2023-04-24T07:45:46;13.30;82.97
65470;DHT22;52067;50.710;14.492;2023-04-24T07:48:12;13.50;82.55
65470;DHT22;52067;50.710;14.492;2023-04-24T07:50:40;13.52;82.20
65470;DHT22;52067;50.710;14.492;2023-04-24T07:53:05;13.81;83.45
65470;DHT22;52067;50.710;14.492;2023-04-24T07:55:30;14.02;81.77
65470;DHT22;52067;50.710;14.492;2023-04-24T07:57:56;13.73;83.00
65470;DHT22;52067;50.710;14.492;2023-04-24T08:00:21;13.77;81.07
65470;DHT22;52067;50.710;14.492;2023-04-24T08:02:47;13.88;82.00
65470;DHT22;52067;50.710;14.492;2023-04-24T08:05:12;13.02;81.00
65470;DHT22;52067;50.710;14.492;2023-04-24T08:07:38;13.04;82.35
65470;DHT22;52067;50.710;14.492;2023-04-24T08:10:04;12.98;83.11
65470;DHT22;52067;50.710;14.492;2023-04-24T08:12:30;12.99;81.89
65470;DHT22;52067;50.710;14.492;2023-04-24T08:14:55;12.98;83.45
65470;DHT22;52067;50.710;14.492;2023-04-24T08:17:21;13.06;81.71
65470;DHT22;52067;50.710;14.492;2023-04-24T08:19:46;13.04;82.23
65470;DHT22;52067;50.710;14.492;2023-04-24T08:22:16;12.95;81.13
65470;DHT22;52067;50.710;14.492;2023-04-24T08:24:42;13.08;81.67
65470;DHT22;52067;50.710;14.492;2023-04-24T08:27:09;12.98;81.62
65470;DHT22;52067;50.710;14.492;2023-04-24T08:29:34;13.01;81.62
65470;DHT22;52067;50.710;14.492;2023-04-24T08:31:59;13.16;80.84
65470;DHT22;52067;50.710;14.492;2023-04-24T08:34:25;13.26;80.94
65470;DHT22;52067;50.710;14.492;2023-04-24T08:36:50;13.43;81.94
65470;DHT22;52067;50.710;14.492;2023-04-24T08:39:17;13.57;79.45
65470;DHT22;52067;50.710;14.492;2023-04-24T08:41:43;13.57;80.42
65470;DHT22;52067;50.710;14.492;2023-04-24T08:44:10;13.62;80.07
65470;DHT22;52067;50.710;14.492;2023-04-24T08:46:37;13.71;78.57
65470;DHT22;52067;50.710;14.492;2023-04-24T08:49:03;13.59;79.52
65470;DHT22;52067;50.710;14.492;2023-04-24T08:51:29;13.88;79.21
65470;DHT22;52067;50.710;14.492;2023-04-24T08:53:55;13.30;78.39
65470;DHT22;52067;50.710;14.492;2023-04-24T08:56:22;13.98;78.55
65470;DHT22;52067;50.710;14.492;2023-04-24T08:58:51;13.87;78.71
65470;DHT22;52067;50.710;14.492;2023-04-24T09:01:18;13.56;77.92
65470;DHT22;52067;50.710;14.492;2023-04-24T09:03:45;13.50;79.06
65470;DHT22;52067;50.710;14.492;2023-04-24T09:06:11;13.57;79.92
65470;DHT22;52067;50.710;14.492;2023-04-24T09:08:37;13.54;78.97
65470;DHT22;52067;50.710;14.492;2023-04-24T09:11:04;13.93;79.24
65470;DHT22;52067;50.710;14.492;2023-04-24T09:13:30;14.10;77.26
65470;DHT22;52067;50.710;14.492;2023-04-24T09:15:55;14.18;75.96
65470;DHT22;52067;50.710;14.492;2023-04-24T09:18:22;14.10;73.93
65470;DHT22;52067;50.710;14.492;2023-04-24T09:21:01;14.17;75.81
65470;DHT22;52067;50.710;14.492;2023-04-24T09:23:31;13.97;76.93
65470;DHT22;52067;50.710;14.492;2023-04-24T09:25:58;14.39;75.21
65470;DHT22;52067;50.710;14.492;2023-04-24T09:28:29;14.83;73.87
65470;DHT22;52067;50.710;14.492;2023-04-24T09:31:13;14.07;75.49
65470;DHT22;52067;50.710;14.492;2023-04-24T09:33:40;14.32;75.30
65470;DHT22;52067;50.710;14.492;2023-04-24T09:36:05;13.77;77.10
65470;DHT22;52067;50.710;14.492;2023-04-24T09:38:36;14.22;75.45
65470;DHT22;52067;50.710;14.492;2023-04-24T09:41:06;13.94;77.15
65470;DHT22;52067;50.710;14.492;2023-04-24T09:43:33;14.15;74.54
65470;DHT22;52067;50.710;14.492;2023-04-24T09:46:04;14.18;75.03
65470;DHT22;52067;50.710;14.492;2023-04-24T09:48:35;14.12;75.18
65470;DHT22;52067;50.710;14.492;2023-04-24T09:51:01;13.85;76.20
65470;DHT22;52067;50.710;14.492;2023-04-24T09:53:30;14.10;76.05
65470;DHT22;52067;50.710;14.492;2023-04-24T09:55:55;14.28;73.64
65470;DHT22;52067;50.710;14.492;2023-04-24T09:58:28;14.26;73.63
65470;DHT22;52067;50.710;14.492;2023-04-24T10:00:55;14.21;75.12
65470;DHT22;52067;50.710;14.492;2023-04-24T10:03:24;13.94;76.33
65470;DHT22;52067;50.710;14.492;2023-04-24T10:05:51;13.83;76.07
65470;DHT22;52067;50.710;14.492;2023-04-24T10:08:17;14.24;76.37
65470;DHT22;52067;50.710;14.492;2023-04-24T10:10:44;14.29;74.98
65470;DHT22;52067;50.710;14.492;2023-04-24T10:13:11;14.41;74.52
65470;DHT22;52067;50.710;14.492;2023-04-24T10:15:37;14.58;75.16
65470;DHT22;52067;50.710;14.492;2023-04-24T10:18:07;14.58;75.23
65470;DHT22;52067;50.710;14.492;2023-04-24T10:20:35;14.60;74.20
65470;DHT22;52067;50.710;14.492;2023-04-24T10:23:01;14.20;75.45
65470;DHT22;52067;50.710;14.492;2023-04-24T10:25:29;14.48;75.74
65470;DHT22;52067;50.710;14.492;2023-04-24T10:27:55;14.18;75.23
65470;DHT22;52067;50.710;14.492;2023-04-24T10:30:29;14.25;75.81
65470;DHT22;52067;50.710;14.492;2023-04-24T10:32:54;14.41;74.85
65470;DHT22;52067;50.710;14.492;2023-04-24T10:35:21;14.08;77.99
65470;DHT22;52067;50.710;14.492;2023-04-24T10:40:33;14.49;75.15
65470;DHT22;52067;50.710;14.492;2023-04-24T10:42:59;14.60;73.73
65470;DHT22;52067;50.710;14.492;2023-04-24T10:45:25;14.87;73.50
65470;DHT22;52067;50.710;14.492;2023-04-24T10:48:17;14.96;72.55
65470;DHT22;52067;50.710;14.492;2023-04-24T10:50:52;15.11;74.37
65470;DHT22;52067;50.710;14.492;2023-04-24T10:53:21;15.30;72.93
65470;DHT22;52067;50.710;14.492;2023-04-24T10:55:51;15.41;72.02
65470;DHT22;52067;50.710;14.492;2023-04-24T10:58:24;15.55;71.16
65470;DHT22;52067;50.710;14.492;2023-04-24T11:01:00;15.63;71.64
65470;DHT22;52067;50.710;14.492;2023-04-24T11:03:31;14.81;74.56
65470;DHT22;52067;50.710;14.492;2023-04-24T11:06:09;15.06;72.93
65470;DHT22;52067;50.710;14.492;2023-04-24T11:08:40;15.52;70.59
65470;DHT22;52067;50.710;14.492;2023-04-24T11:11:18;15.44;70.67
65470;DHT22;52067;50.710;14.492;2023-04-24T11:18:52;16.23;67.36
65470;DHT22;52067;50.710;14.492;2023-04-24T11:21:22;15.83;71.59
65470;DHT22;52067;50.710;14.492;2023-04-24T11:23:47;16.55;67.73
65470;DHT22;52067;50.710;14.492;2023-04-24T11:26:18;16.94;64.73
65470;DHT22;52067;50.710;14.492;2023-04-24T11:28:48;16.33;66.69
65470;DHT22;52067;50.710;14.492;2023-04-24T11:31:39;17.23;64.79
65470;DHT22;52067;50.710;14.492;2023-04-24T11:34:09;16.88;66.65
65470;DHT22;52067;50.710;14.492;2023-04-24T11:36:35;16.94;65.99
65470;DHT22;52067;50.710;14.492;2023-04-24T11:39:01;16.76;66.99
65470;DHT22;52067;50.710;14.492;2023-04-24T11:41:28;16.44;66.38
65470;DHT22;52067;50.710;14.492;2023-04-24T11:43:53;15.58;68.59
65470;DHT22;52067;50.710;14.492;2023-04-24T11:46:21;15.70;68.46
65470;DHT22;52067;50.710;14.492;2023-04-24T11:48:46;15.88;69.61
65470;DHT22;52067;50.710;14.492;2023-04-24T11:51:13;15.45;70.99
65470;DHT22;52067;50.710;14.492;2023-04-24T11:53:38;15.57;69.55
65470;DHT22;52067;50.710;14.492;2023-04-24T11:56:04;16.17;70.49
65470;DHT22;52067;50.710;14.492;2023-04-24T11:58:40;16.72;68.55
65470;DHT22;52067;50.710;14.492;2023-04-24T12:01:05;16.75;67.94
65470;DHT22;52067;50.710;14.492;2023-04-24T12:03:31;17.54;66.84
65470;DHT22;52067;50.710;14.492;2023-04-24T12:06:10;17.49;67.84
65470;DHT22;52067;50.710;14.492;2023-04-24T12:08:36;18.22;62.97
65470;DHT22;52067;50.710;14.492;2023-04-24T12:11:03;18.73;61.99
65470;DHT22;52067;50.710;14.492;2023-04-24T12:13:29;18.08;61.97
65470;DHT22;52067;50.710;14.492;2023-04-24T12:15:56;19.35;59.63
65470;DHT22;52067;50.710;14.492;2023-04-24T12:18:23;19.85;57.04
65470;DHT22;52067;50.710;14.492;2023-04-24T12:20:48;18.48;60.86
65470;DHT22;52067;50.710;14.492;2023-04-24T12:23:14;19.59;58.35
65470;DHT22;52067;50.710;14.492;2023-04-24T12:25:39;18.87;57.55
65470;DHT22;52067;50.710;14.492;2023-04-24T12:30:39;18.12;59.50
65470;DHT22;52067;50.710;14.492;2023-04-24T12:33:05;17.59;60.89
65470;DHT22;52067;50.710;14.492;2023-04-24T12:35:32;17.46;61.95
65470;DHT22;52067;50.710;14.492;2023-04-24T12:38:12;17.34;61.52
65470;DHT22;52067;50.710;14.492;2023-04-24T12:40:39;16.71;65.28
65470;DHT22;52067;50.710;14.492;2023-04-24T12:43:18;15.52;73.01
65470;DHT22;52067;50.710;14.492;2023-04-24T12:45:45;15.61;71.56
65470;DHT22;52067;50.710;14.492;2023-04-24T12:48:11;15.96;70.40
65470;DHT22;52067;50.710;14.492;2023-04-24T12:50:38;16.26;71.62
65470;DHT22;52067;50.710;14.492;2023-04-24T12:53:03;16.10;71.52
65470;DHT22;52067;50.710;14.492;2023-04-24T12:55:28;14.94;73.47
65470;DHT22;52067;50.710;14.492;2023-04-24T12:57:54;14.53;78.25
65470;DHT22;52067;50.710;14.492;2023-04-24T13:00:20;14.49;78.44
65470;DHT22;52067;50.710;14.492;2023-04-24T13:02:46;14.31;80.98
65470;DHT22;52067;50.710;14.492;2023-04-24T13:05:11;14.25;82.26
65470;DHT22;52067;50.710;14.492;2023-04-24T13:07:39;14.77;80.69
65470;DHT22;52067;50.710;14.492;2023-04-24T13:10:05;15.11;77.42
65470;DHT22;52067;50.710;14.492;2023-04-24T13:12:30;14.56;77.01
65470;DHT22;52067;50.710;14.492;2023-04-24T13:14:57;15.96;79.40
65470;DHT22;52067;50.710;14.492;2023-04-24T13:17:22;15.38;80.25
65470;DHT22;52067;50.710;14.492;2023-04-24T13:19:50;15.03;82.20
65470;DHT22;52067;50.710;14.492;2023-04-24T13:22:16;15.00;80.40
65470;DHT22;52067;50.710;14.492;2023-04-24T13:24:43;15.21;77.68
65470;DHT22;52067;50.710;14.492;2023-04-24T13:27:09;15.23;77.58
65470;DHT22;52067;50.710;14.492;2023-04-24T13:29:35;15.85;75.17
65470;DHT22;52067;50.710;14.492;2023-04-24T13:32:00;15.72;67.06
65470;DHT22;52067;50.710;14.492;2023-04-24T13:34:27;15.32;70.11
65470;DHT22;52067;50.710;14.492;2023-04-24T13:36:54;15.27;69.28
65470;DHT22;52067;50.710;14.492;2023-04-24T13:39:20;15.52;67.22
65470;DHT22;52067;50.710;14.492;2023-04-24T13:41:46;15.48;68.70
65470;DHT22;52067;50.710;14.492;2023-04-24T13:44:14;17.27;59.21
65470;DHT22;52067;50.710;14.492;2023-04-24T13:46:40;19.12;56.92
65470;DHT22;52067;50.710;14.492;2023-04-24T13:49:06;20.61;53.07
65470;DHT22;52067;50.710;14.492;2023-04-24T13:51:32;21.47;50.94
65470;DHT22;52067;50.710;14.492;2023-04-24T13:53:57;20.76;51.82
65470;DHT22;52067;50.710;14.492;2023-04-24T13:56:23;19.73;54.37
65470;DHT22;52067;50.710;14.492;2023-04-24T13:58:48;20.23;54.03
65470;DHT22;52067;50.710;14.492;2023-04-24T14:01:14;21.29;48.61
65470;DHT22;52067;50.710;14.492;2023-04-24T14:03:41;20.67;50.95
65470;DHT22;52067;50.710;14.492;2023-04-24T14:06:07;19.04;52.01
65470;DHT22;52067;50.710;14.492;2023-04-24T14:08:33;18.91;53.47
65470;DHT22;52067;50.710;14.492;2023-04-24T14:10:58;18.05;55.83
65470;DHT22;52067;50.710;14.492;2023-04-24T14:13:25;17.47;57.55
65470;DHT22;52067;50.710;14.492;2023-04-24T14:15:51;17.15;60.53
65470;DHT22;52067;50.710;14.492;2023-04-24T14:18:17;16.72;58.18
65470;DHT22;52067;50.710;14.492;2023-04-24T14:20:43;16.61;63.24
65470;DHT22;52067;50.710;14.492;2023-04-24T14:23:09;16.48;63.50
65470;DHT22;52067;50.710;14.492;2023-04-24T14:25:34;16.31;62.73
65470;DHT22;52067;50.710;14.492;2023-04-24T14:28:00;16.10;62.60
65470;DHT22;52067;50.710;14.492;2023-04-24T14:30:25;16.09;62.06
65470;DHT22;52067;50.710;14.492;2023-04-24T14:32:50;16.03;64.29
65470;DHT22;52067;50.710;14.492;2023-04-24T14:35:16;15.82;64.33
65470;DHT22;52067;50.710;14.492;2023-04-24T14:37:41;15.73;63.19
65470;DHT22;52067;50.710;14.492;2023-04-24T14:40:08;15.81;64.28
65470;DHT22;52067;50.710;14.492;2023-04-24T14:42:34;15.70;63.92
65470;DHT22;52067;50.710;14.492;2023-04-24T14:45:00;15.69;59.39
65470;DHT22;52067;50.710;14.492;2023-04-24T14:47:26;15.52;57.86
65470;DHT22;52067;50.710;14.492;2023-04-24T14:49:51;15.38;58.44
65470;DHT22;52067;50.710;14.492;2023-04-24T14:52:17;15.30;58.74
65470;DHT22;52067;50.710;14.492;2023-04-24T14:54:42;15.18;58.20
65470;DHT22;52067;50.710;14.492;2023-04-24T14:57:08;15.08;57.45
65470;DHT22;52067;50.710;14.492;2023-04-24T14:59:34;14.87;58.38
65470;DHT22;52067;50.710;14.492;2023-04-24T15:01:59;14.72;58.79
65470;DHT22;52067;50.710;14.492;2023-04-24T15:04:25;14.75;59.49
65470;DHT22;52067;50.710;14.492;2023-04-24T15:06:51;14.73;61.14
65470;DHT22;52067;50.710;14.492;2023-04-24T15:09:16;14.83;62.43
65470;DHT22;52067;50.710;14.492;2023-04-24T15:11:42;14.69;61.77
65470;DHT22;52067;50.710;14.492;2023-04-24T15:14:07;14.86;62.16
65470;DHT22;52067;50.710;14.492;2023-04-24T15:16:33;14.69;64.56
65470;DHT22;52067;50.710;14.492;2023-04-24T15:18:58;15.08;62.66
65470;DHT22;52067;50.710;14.492;2023-04-24T15:21:23;15.39;62.43
65470;DHT22;52067;50.710;14.492;2023-04-24T15:23:49;15.73;60.16
65470;DHT22;52067;50.710;14.492;2023-04-24T15:26:15;16.10;58.46